sensor_id;sensor_type;location;lat;lon;timestamp;pressure;altitude;pressure_sealevel;temperature;humidity
67987;BME280;54767;53.800;15.956;2022-08-19T00:01:57;99872.36;;;22.61;64.99
67987;BME280;54767;53.800;15.956;2022-08-19T00:04:32;99869.38;;;22.63;65.01
67987;BME280;54767;53.800;15.956;2022-08-19T00:07:04;99868.81;;;22.67;64.94
67987;BME280;54767;53.800;15.956;2022-08-19T00:09:32;99865.58;;;22.70;65.02
67987;BME280;54767;53.800;15.956;2022-08-19T00:11:59;99864.11;;;22.71;65.03
67987;BME280;54767;53.800;15.956;2022-08-19T00:14:27;99861.80;;;22.71;65.25
67987;BME280;54767;53.800;15.956;2022-08-19T00:16:58;99860.84;;;22.66;65.20
67987;BME280;54767;53.800;15.956;2022-08-19T00:19:25;99860.26;;;22.57;65.26
67987;BME280;54767;53.800;15.956;2022-08-19T00:21:54;99858.87;;;22.46;65.49
67987;BME280;54767;53.800;15.956;2022-08-19T00:24:23;99853.05;;;22.35;65.74
67987;BME280;54767;53.800;15.956;2022-08-19T00:26:51;99856.28;;;22.24;66.01
67987;BME280;54767;53.800;15.956;2022-08-19T00:29:20;99852.89;;;22.17;66.25
67987;BME280;54767;53.800;15.956;2022-08-19T00:31:47;99851.78;;;22.14;66.38
67987;BME280;54767;53.800;15.956;2022-08-19T00:34:17;99852.67;;;22.10;66.32
67987;BME280;54767;53.800;15.956;2022-08-19T00:36:45;99861.64;;;22.06;66.61
67987;BME280;54767;53.800;15.956;2022-08-19T00:39:13;99860.64;;;22.01;66.53
67987;BME280;54767;53.800;15.956;2022-08-19T00:41:42;99862.25;;;21.97;66.64
67987;BME280;54767;53.800;15.956;2022-08-19T00:44:12;99858.04;;;21.93;66.79
67987;BME280;54767;53.800;15.956;2022-08-19T00:46:43;99856.94;;;21.90;67.02
67987;BME280;54767;53.800;15.956;2022-08-19T00:49:34;99855.40;;;21.85;67.22
67987;BME280;54767;53.800;15.956;2022-08-19T00:52:07;99847.91;;;21.78;67.41
67987;BME280;54767;53.800;15.956;2022-08-19T00:54:37;99850.31;;;21.73;67.67
67987;BME280;54767;53.800;15.956;2022-08-19T00:57:09;99855.77;;;21.71;67.44
67987;BME280;54767;53.800;15.956;2022-08-19T00:59:39;99858.66;;;21.70;67.68
67987;BME280;54767;53.800;15.956;2022-08-19T01:02:29;99856.67;;;21.67;67.91
67987;BME280;54767;53.800;15.956;2022-08-19T01:04:59;99856.45;;;21.64;67.91
67987;BME280;54767;53.800;15.956;2022-08-19T01:07:27;99864.00;;;21.63;67.96
67987;BME280;54767;53.800;15.956;2022-08-19T01:10:03;99860.44;;;21.62;67.98
67987;BME280;54767;53.800;15.956;2022-08-19T01:12:30;99854.21;;;21.62;67.91
67987;BME280;54767;53.800;15.956;2022-08-19T01:14:58;99848.36;;;21.62;68.15
67987;BME280;54767;53.800;15.956;2022-08-19T01:17:27;99849.01;;;21.63;68.19
67987;BME280;54767;53.800;15.956;2022-08-19T01:19:54;99850.92;;;21.68;68.12
67987;BME280;54767;53.800;15.956;2022-08-19T01:25:00;99855.31;;;21.83;67.74
67987;BME280;54767;53.800;15.956;2022-08-19T01:27:38;99854.72;;;21.87;67.63
67987;BME280;54767;53.800;15.956;2022-08-19T01:30:16;99855.55;;;21.89;67.63
67987;BME280;54767;53.800;15.956;2022-08-19T01:32:44;99851.70;;;21.84;67.49
67987;BME280;54767;53.800;15.956;2022-08-19T01:35:13;99854.63;;;21.79;67.62
67987;BME280;54767;53.800;15.956;2022-08-19T01:37:52;99852.19;;;21.75;67.77
67987;BME280;54767;53.800;15.956;2022-08-19T01:40:22;99853.05;;;21.75;67.92
67987;BME280;54767;53.800;15.956;2022-08-19T01:42:49;99849.55;;;21.74;67.83
67987;BME280;54767;53.800;15.956;2022-08-19T01:45:18;99850.55;;;21.72;67.84
67987;BME280;54767;53.800;15.956;2022-08-19T01:47:45;99841.42;;;21.72;68.01
67987;BME280;54767;53.800;15.956;2022-08-19T01:50:30;99837.34;;;21.72;68.04
67987;BME280;54767;53.800;15.956;2022-08-19T01:52:58;99836.20;;;21.70;67.96
67987;BME280;54767;53.800;15.956;2022-08-19T01:55:36;99831.10;;;21.65;68.07
67987;BME280;54767;53.800;15.956;2022-08-19T01:58:19;99825.56;;;21.62;68.16
67987;BME280;54767;53.800;15.956;2022-08-19T02:00:48;99820.44;;;21.54;68.57
67987;BME280;54767;53.800;15.956;2022-08-19T02:03:16;99819.64;;;21.49;68.57
67987;BME280;54767;53.800;15.956;2022-08-19T02:05:43;99815.75;;;21.48;68.70
67987;BME280;54767;53.800;15.956;2022-08-19T02:08:11;99814.13;;;21.48;68.82
67987;BME280;54767;53.800;15.956;2022-08-19T02:10:42;99815.09;;;21.50;68.89
67987;BME280;54767;53.800;15.956;2022-08-19T02:13:11;99816.27;;;21.56;68.88
67987;BME280;54767;53.800;15.956;2022-08-19T02:15:40;99811.90;;;21.58;68.88
67987;BME280;54767;53.800;15.956;2022-08-19T02:18:08;99816.57;;;21.60;68.70
67987;BME280;54767;53.800;15.956;2022-08-19T02:20:35;99817.62;;;21.61;68.71
67987;BME280;54767;53.800;15.956;2022-08-19T02:23:03;99811.13;;;21.59;68.70
67987;BME280;54767;53.800;15.956;2022-08-19T02:25:30;99804.64;;;21.60;68.77
67987;BME280;54767;53.800;15.956;2022-08-19T02:27:57;99799.11;;;21.64;68.70
67987;BME280;54767;53.800;15.956;2022-08-19T02:30:25;99791.17;;;21.66;68.59
67987;BME280;54767;53.800;15.956;2022-08-19T02:32:53;99785.89;;;21.65;68.66
67987;BME280;54767;53.800;15.956;2022-08-19T02:35:20;99785.54;;;21.65;68.48
67987;BME280;54767;53.800;15.956;2022-08-19T02:37:48;99781.91;;;21.66;68.40
67987;BME280;54767;53.800;15.956;2022-08-19T02:40:35;99783.66;;;21.66;68.43
67987;BME280;54767;53.800;15.956;2022-08-19T02:43:04;99783.91;;;21.62;68.32
67987;BME280;54767;53.800;15.956;2022-08-19T02:45:35;99788.20;;;21.58;68.38
67987;BME280;54767;53.800;15.956;2022-08-19T02:48:08;99784.63;;;21.55;68.56
67987;BME280;54767;53.800;15.956;2022-08-19T02:50:50;99782.20;;;21.54;68.57
67987;BME280;54767;53.800;15.956;2022-08-19T02:53:23;99782.65;;;21.55;68.54
67987;BME280;54767;53.800;15.956;2022-08-19T02:55:51;99783.05;;;21.58;68.47
67987;BME280;54767;53.800;15.956;2022-08-19T02:58:19;99777.80;;;21.59;68.69
67987;BME280;54767;53.800;15.956;2022-08-19T03:00:51;99781.95;;;21.62;68.53
67987;BME280;54767;53.800;15.956;2022-08-19T03:03:19;99775.55;;;21.65;68.47
67987;BME280;54767;53.800;15.956;2022-08-19T03:05:47;99770.70;;;21.65;68.62
67987;BME280;54767;53.800;15.956;2022-08-19T03:08:24;99774.25;;;21.66;68.64
67987;BME280;54767;53.800;15.956;2022-08-19T03:10:52;99774.91;;;21.67;68.37
67987;BME280;54767;53.800;15.956;2022-08-19T03:13:21;99776.09;;;21.69;68.43
67987;BME280;54767;53.800;15.956;2022-08-19T03:15:49;99780.73;;;21.72;68.33
67987;BME280;54767;53.800;15.956;2022-08-19T03:18:16;99779.56;;;21.74;68.33
67987;BME280;54767;53.800;15.956;2022-08-19T03:20:47;99779.09;;;21.72;68.50
67987;BME280;54767;53.800;15.956;2022-08-19T03:23:15;99782.34;;;21.64;68.35
67987;BME280;54767;53.800;15.956;2022-08-19T03:25:48;99780.27;;;21.56;68.71
67987;BME280;54767;53.800;15.956;2022-08-19T03:28:36;99772.60;;;21.46;68.91
67987;BME280;54767;53.800;15.956;2022-08-19T03:31:07;99771.57;;;21.42;69.06
67987;BME280;54767;53.800;15.956;2022-08-19T03:33:55;99766.51;;;21.40;69.11
67987;BME280;54767;53.800;15.956;2022-08-19T03:36:25;99768.77;;;21.41;69.16
67987;BME280;54767;53.800;15.956;2022-08-19T03:38:58;99771.98;;;21.44;68.99
67987;BME280;54767;53.800;15.956;2022-08-19T03:41:31;99770.55;;;21.44;69.17
67987;BME280;54767;53.800;15.956;2022-08-19T03:44:15;99772.46;;;21.45;69.07
67987;BME280;54767;53.800;15.956;2022-08-19T03:46:46;99776.42;;;21.48;69.05
67987;BME280;54767;53.800;15.956;2022-08-19T03:49:14;99772.25;;;21.49;69.00
67987;BME280;54767;53.800;15.956;2022-08-19T03:51:42;99767.27;;;21.46;69.09
67987;BME280;54767;53.800;15.956;2022-08-19T03:54:12;99764.58;;;21.39;69.11
67987;BME280;54767;53.800;15.956;2022-08-19T03:56:42;99767.98;;;21.35;69.10
67987;BME280;54767;53.800;15.956;2022-08-19T03:59:14;99771.13;;;21.28;69.22
67987;BME280;54767;53.800;15.956;2022-08-19T04:01:42;99766.45;;;21.22;69.49
67987;BME280;54767;53.800;15.956;2022-08-19T04:04:10;99761.56;;;21.17;69.87
67987;BME280;54767;53.800;15.956;2022-08-19T04:06:38;99754.96;;;21.13;69.67
67987;BME280;54767;53.800;15.956;2022-08-19T04:09:08;99752.71;;;21.15;69.82
67987;BME280;54767;53.800;15.956;2022-08-19T04:11:36;99749.98;;;21.20;69.94
67987;BME280;54767;53.800;15.956;2022-08-19T04:14:13;99748.85;;;21.22;69.73
67987;BME280;54767;53.800;15.956;2022-08-19T04:16:41;99748.86;;;21.25;69.88
67987;BME280;54767;53.800;15.956;2022-08-19T04:19:10;99744.05;;;21.25;69.68
67987;BME280;54767;53.800;15.956;2022-08-19T04:21:37;99748.44;;;21.27;69.87
67987;BME280;54767;53.800;15.956;2022-08-19T04:24:05;99744.20;;;21.30;69.88
67987;BME280;54767;53.800;15.956;2022-08-19T04:26:35;99747.59;;;21.33;69.94
67987;BME280;54767;53.800;15.956;2022-08-19T04:29:08;99748.42;;;21.38;70.16
67987;BME280;54767;53.800;15.956;2022-08-19T04:31:40;99751.04;;;21.42;70.08
67987;BME280;54767;53.800;15.956;2022-08-19T04:34:11;99754.23;;;21.47;70.40
67987;BME280;54767;53.800;15.956;2022-08-19T04:36:40;99759.80;;;21.52;70.29
67987;BME280;54767;53.800;15.956;2022-08-19T04:39:11;99765.92;;;21.58;70.42
67987;BME280;54767;53.800;15.956;2022-08-19T04:41:38;99764.39;;;21.63;70.64
67987;BME280;54767;53.800;15.956;2022-08-19T04:44:24;99769.08;;;21.70;70.42
67987;BME280;54767;53.800;15.956;2022-08-19T04:46:52;99765.43;;;21.75;70.45
67987;BME280;54767;53.800;15.956;2022-08-19T04:49:21;99766.95;;;21.80;70.26
67987;BME280;54767;53.800;15.956;2022-08-19T04:51:50;99777.17;;;21.85;70.31
67987;BME280;54767;53.800;15.956;2022-08-19T04:54:23;99770.31;;;21.91;70.04
67987;BME280;54767;53.800;15.956;2022-08-19T04:57:08;99772.77;;;21.95;70.06
67987;BME280;54767;53.800;15.956;2022-08-19T04:59:37;99777.34;;;21.96;69.90
67987;BME280;54767;53.800;15.956;2022-08-19T05:02:07;99780.67;;;21.97;70.00
67987;BME280;54767;53.800;15.956;2022-08-19T05:04:36;99783.73;;;22.00;70.05
67987;BME280;54767;53.800;15.956;2022-08-19T05:07:07;99784.25;;;22.03;69.89
67987;BME280;54767;53.800;15.956;2022-08-19T05:09:34;99784.03;;;22.08;69.83
67987;BME280;54767;53.800;15.956;2022-08-19T05:12:21;99784.13;;;22.16;69.82
67987;BME280;54767;53.800;15.956;2022-08-19T05:14:56;99783.61;;;22.23;69.87
67987;BME280;54767;53.800;15.956;2022-08-19T05:17:26;99782.40;;;22.32;69.78
67987;BME280;54767;53.800;15.956;2022-08-19T05:19:57;99783.61;;;22.43;69.73
67987;BME280;54767;53.800;15.956;2022-08-19T05:22:45;99780.94;;;22.56;69.54
67987;BME280;54767;53.800;15.956;2022-08-19T05:25:16;99781.39;;;22.67;69.38
67987;BME280;54767;53.800;15.956;2022-08-19T05:27:45;99779.94;;;22.80;69.18
67987;BME280;54767;53.800;15.956;2022-08-19T05:30:13;99777.75;;;22.91;68.91
67987;BME280;54767;53.800;15.956;2022-08-19T05:32:41;99779.17;;;23.01;68.76
67987;BME280;54767;53.800;15.956;2022-08-19T05:35:08;99785.27;;;23.10;68.39
67987;BME280;54767;53.800;15.956;2022-08-19T05:37:36;99781.41;;;23.18;68.22
67987;BME280;54767;53.800;15.956;2022-08-19T05:40:05;99784.48;;;23.24;67.70
67987;BME280;54767;53.800;15.956;2022-08-19T05:42:32;99782.02;;;23.29;67.43
67987;BME280;54767;53.800;15.956;2022-08-19T05:44:59;99777.52;;;23.35;67.29
67987;BME280;54767;53.800;15.956;2022-08-19T05:47:26;99779.83;;;23.42;66.87
67987;BME280;54767;53.800;15.956;2022-08-19T05:49:53;99772.80;;;23.46;66.72
67987;BME280;54767;53.800;15.956;2022-08-19T05:52:21;99769.67;;;23.54;66.69
67987;BME280;54767;53.800;15.956;2022-08-19T05:54:53;99775.36;;;23.61;66.75
67987;BME280;54767;53.800;15.956;2022-08-19T05:57:24;99778.14;;;23.65;66.20
67987;BME280;54767;53.800;15.956;2022-08-19T05:59:51;99779.86;;;23.69;66.50
67987;BME280;54767;53.800;15.956;2022-08-19T06:02:28;99777.27;;;23.74;66.33
67987;BME280;54767;53.800;15.956;2022-08-19T06:04:57;99776.88;;;23.84;66.16
67987;BME280;54767;53.800;15.956;2022-08-19T06:07:24;99763.71;;;23.88;65.45
67987;BME280;54767;53.800;15.956;2022-08-19T06:09:51;99762.42;;;23.89;65.53
67987;BME280;54767;53.800;15.956;2022-08-19T06:12:29;99768.02;;;23.97;65.88
67987;BME280;54767;53.800;15.956;2022-08-19T06:15:06;99764.45;;;24.09;65.83
67987;BME280;54767;53.800;15.956;2022-08-19T06:17:34;99762.53;;;24.17;65.51
67987;BME280;54767;53.800;15.956;2022-08-19T06:20:05;99762.13;;;24.23;65.11
67987;BME280;54767;53.800;15.956;2022-08-19T06:22:38;99762.54;;;24.25;64.84
67987;BME280;54767;53.800;15.956;2022-08-19T06:25:06;99760.66;;;24.29;64.70
67987;BME280;54767;53.800;15.956;2022-08-19T06:27:33;99757.65;;;24.37;64.73
67987;BME280;54767;53.800;15.956;2022-08-19T06:30:03;99754.88;;;24.42;64.35
67987;BME280;54767;53.800;15.956;2022-08-19T06:32:30;99750.91;;;24.46;63.96
67987;BME280;54767;53.800;15.956;2022-08-19T06:34:57;99745.78;;;24.45;64.27
67987;BME280;54767;53.800;15.956;2022-08-19T06:37:24;99742.83;;;24.49;64.21
67987;BME280;54767;53.800;15.956;2022-08-19T06:39:51;99740.70;;;24.54;64.00
67987;BME280;54767;53.800;15.956;2022-08-19T06:42:18;99739.88;;;24.59;63.46
67987;BME280;54767;53.800;15.956;2022-08-19T06:44:50;99740.48;;;24.57;63.32
67987;BME280;54767;53.800;15.956;2022-08-19T06:47:20;99744.63;;;24.63;63.43
67987;BME280;54767;53.800;15.956;2022-08-19T06:49:58;99749.08;;;24.69;63.02
67987;BME280;54767;53.800;15.956;2022-08-19T06:52:34;99747.75;;;24.76;63.21
67987;BME280;54767;53.800;15.956;2022-08-19T06:55:03;99752.63;;;24.80;62.93
67987;BME280;54767;53.800;15.956;2022-08-19T06:57:33;99755.55;;;24.82;62.78
67987;BME280;54767;53.800;15.956;2022-08-19T07:00:00;99760.46;;;24.81;62.66
67987;BME280;54767;53.800;15.956;2022-08-19T07:02:28;99760.40;;;24.82;62.57
67987;BME280;54767;53.800;15.956;2022-08-19T07:04:55;99757.81;;;24.83;62.89
67987;BME280;54767;53.800;15.956;2022-08-19T07:07:26;99756.55;;;24.80;62.57
67987;BME280;54767;53.800;15.956;2022-08-19T07:09:53;99757.08;;;24.78;62.32
67987;BME280;54767;53.800;15.956;2022-08-19T07:12:29;99759.77;;;24.80;62.47
67987;BME280;54767;53.800;15.956;2022-08-19T07:15:05;99761.94;;;24.83;62.79
67987;BME280;54767;53.800;15.956;2022-08-19T07:17:36;99764.60;;;24.84;62.92
67987;BME280;54767;53.800;15.956;2022-08-19T07:20:06;99759.60;;;24.89;63.07
67987;BME280;54767;53.800;15.956;2022-08-19T07:22:37;99755.81;;;24.97;63.37
67987;BME280;54767;53.800;15.956;2022-08-19T07:25:06;99757.27;;;25.08;63.09
67987;BME280;54767;53.800;15.956;2022-08-19T07:27:34;99759.75;;;25.17;62.53
67987;BME280;54767;53.800;15.956;2022-08-19T07:30:03;99756.42;;;25.27;62.51
67987;BME280;54767;53.800;15.956;2022-08-19T07:32:31;99757.58;;;25.36;62.26
67987;BME280;54767;53.800;15.956;2022-08-19T07:34:58;99759.58;;;25.44;62.35
67987;BME280;54767;53.800;15.956;2022-08-19T07:37:27;99762.05;;;25.50;61.80
67987;BME280;54767;53.800;15.956;2022-08-19T07:40:00;99759.60;;;25.54;61.65
67987;BME280;54767;53.800;15.956;2022-08-19T07:42:38;99764.31;;;25.58;61.54
67987;BME280;54767;53.800;15.956;2022-08-19T07:45:07;99762.13;;;25.62;61.48
67987;BME280;54767;53.800;15.956;2022-08-19T07:47:34;99761.21;;;25.67;61.53
67987;BME280;54767;53.800;15.956;2022-08-19T07:50:18;99765.27;;;25.74;61.36
67987;BME280;54767;53.800;15.956;2022-08-19T07:52:48;99761.11;;;25.79;61.32
67987;BME280;54767;53.800;15.956;2022-08-19T07:55:19;99761.29;;;25.85;61.37
67987;BME280;54767;53.800;15.956;2022-08-19T07:58:07;99760.48;;;25.91;60.67
67987;BME280;54767;53.800;15.956;2022-08-19T08:02:18;99762.20;;;25.95;60.10
67987;BME280;54767;53.800;15.956;2022-08-19T08:10:16;99751.56;;;25.91;59.77
67987;BME280;54767;53.800;15.956;2022-08-19T08:13:01;99746.94;;;25.90;59.76
67987;BME280;54767;53.800;15.956;2022-08-19T08:16:04;99748.81;;;25.91;59.75
67987;BME280;54767;53.800;15.956;2022-08-19T08:22:53;99751.41;;;25.90;59.99
67987;BME280;54767;53.800;15.956;2022-08-19T08:25:47;99747.42;;;25.88;59.87
67987;BME280;54767;53.800;15.956;2022-08-19T08:38:14;99737.80;;;25.92;60.28
67987;BME280;54767;53.800;15.956;2022-08-19T08:46:44;99722.80;;;26.00;60.68
67987;BME280;54767;53.800;15.956;2022-08-19T08:49:31;99722.34;;;26.04;60.14
67987;BME280;54767;53.800;15.956;2022-08-19T08:52:05;99724.67;;;26.06;59.93
67987;BME280;54767;53.800;15.956;2022-08-19T08:54:46;99721.31;;;26.10;59.74
67987;BME280;54767;53.800;15.956;2022-08-19T08:57:29;99718.14;;;26.14;59.93
67987;BME280;54767;53.800;15.956;2022-08-19T09:00:11;99715.98;;;26.20;60.03
67987;BME280;54767;53.800;15.956;2022-08-19T09:02:43;99718.48;;;26.25;59.84
67987;BME280;54767;53.800;15.956;2022-08-19T09:05:18;99718.79;;;26.33;60.25
67987;BME280;54767;53.800;15.956;2022-08-19T09:08:08;99710.77;;;26.43;60.13
67987;BME280;54767;53.800;15.956;2022-08-19T09:10:46;99705.52;;;26.48;59.35
67987;BME280;54767;53.800;15.956;2022-08-19T09:15:56;99700.18;;;26.50;59.02
67987;BME280;54767;53.800;15.956;2022-08-19T09:18:24;99700.58;;;26.50;58.89
67987;BME280;54767;53.800;15.956;2022-08-19T09:20:56;99695.96;;;26.52;58.98
67987;BME280;54767;53.800;15.956;2022-08-19T09:23:23;99696.49;;;26.54;58.96
67987;BME280;54767;53.800;15.956;2022-08-19T09:25:53;99684.96;;;26.57;58.94
67987;BME280;54767;53.800;15.956;2022-08-19T09:28:21;99679.23;;;26.60;58.81
67987;BME280;54767;53.800;15.956;2022-08-19T09:30:53;99682.70;;;26.61;58.80
67987;BME280;54767;53.800;15.956;2022-08-19T09:33:21;99682.29;;;26.62;58.89
67987;BME280;54767;53.800;15.956;2022-08-19T09:35:49;99687.94;;;26.63;58.92
67987;BME280;54767;53.800;15.956;2022-08-19T09:38:21;99695.13;;;26.63;58.85
67987;BME280;54767;53.800;15.956;2022-08-19T09:40:48;99695.80;;;26.61;58.70
67987;BME280;54767;53.800;15.956;2022-08-19T09:43:17;99690.77;;;26.59;58.97
67987;BME280;54767;53.800;15.956;2022-08-19T09:46:05;99687.30;;;26.55;58.96
67987;BME280;54767;53.800;15.956;2022-08-19T09:48:33;99681.83;;;26.51;58.99
67987;BME280;54767;53.800;15.956;2022-08-19T09:51:10;99691.38;;;26.48;59.07
67987;BME280;54767;53.800;15.956;2022-08-19T09:53:38;99709.80;;;26.46;59.18
67987;BME280;54767;53.800;15.956;2022-08-19T09:56:06;99713.99;;;26.45;59.35
67987;BME280;54767;53.800;15.956;2022-08-19T09:58:36;99725.25;;;26.43;59.08
67987;BME280;54767;53.800;15.956;2022-08-19T10:01:05;99738.77;;;26.43;59.26
67987;BME280;54767;53.800;15.956;2022-08-19T10:03:34;99744.02;;;26.42;59.59
67987;BME280;54767;53.800;15.956;2022-08-19T10:06:04;99744.80;;;26.41;59.50
67987;BME280;54767;53.800;15.956;2022-08-19T10:08:41;99742.60;;;26.42;59.27
67987;BME280;54767;53.800;15.956;2022-08-19T10:11:19;99741.00;;;26.44;59.22
67987;BME280;54767;53.800;15.956;2022-08-19T10:14:04;99737.70;;;26.45;59.27
67987;BME280;54767;53.800;15.956;2022-08-19T10:16:36;99731.78;;;26.47;59.45
67987;BME280;54767;53.800;15.956;2022-08-19T10:19:06;99720.88;;;26.49;59.30
67987;BME280;54767;53.800;15.956;2022-08-19T10:21:33;99716.73;;;26.50;59.35
67987;BME280;54767;53.800;15.956;2022-08-19T10:24:04;99702.80;;;26.49;59.50
67987;BME280;54767;53.800;15.956;2022-08-19T10:26:37;99692.20;;;26.44;59.99
67987;BME280;54767;53.800;15.956;2022-08-19T10:29:04;99679.29;;;26.31;60.56
67987;BME280;54767;53.800;15.956;2022-08-19T10:31:35;99678.05;;;26.21;61.65
67987;BME280;54767;53.800;15.956;2022-08-19T10:34:22;99677.91;;;26.16;62.46
67987;BME280;54767;53.800;15.956;2022-08-19T10:36:56;99678.45;;;26.13;62.96
67987;BME280;54767;53.800;15.956;2022-08-19T10:39:29;99685.77;;;26.11;63.59
67987;BME280;54767;53.800;15.956;2022-08-19T10:42:10;99684.96;;;26.10;64.20
67987;BME280;54767;53.800;15.956;2022-08-19T10:44:37;99686.83;;;26.08;64.43
67987;BME280;54767;53.800;15.956;2022-08-19T10:47:04;99680.33;;;26.07;64.54
67987;BME280;54767;53.800;15.956;2022-08-19T10:49:44;99670.20;;;26.00;64.88
67987;BME280;54767;53.800;15.956;2022-08-19T10:52:29;99666.55;;;25.94;64.94
67987;BME280;54767;53.800;15.956;2022-08-19T10:55:06;99665.51;;;25.91;65.63
67987;BME280;54767;53.800;15.956;2022-08-19T10:57:56;99664.19;;;25.86;65.99
67987;BME280;54767;53.800;15.956;2022-08-19T11:00:29;99656.34;;;25.83;66.62
67987;BME280;54767;53.800;15.956;2022-08-19T11:02:57;99653.29;;;25.83;67.08
67987;BME280;54767;53.800;15.956;2022-08-19T11:05:24;99647.21;;;25.88;67.69
67987;BME280;54767;53.800;15.956;2022-08-19T11:07:51;99645.83;;;25.90;67.39
67987;BME280;54767;53.800;15.956;2022-08-19T11:10:19;99650.50;;;25.90;66.70
67987;BME280;54767;53.800;15.956;2022-08-19T11:12:48;99646.95;;;25.92;66.92
67987;BME280;54767;53.800;15.956;2022-08-19T11:15:20;99644.59;;;25.95;66.85
67987;BME280;54767;53.800;15.956;2022-08-19T11:17:47;99640.98;;;26.00;67.05
67987;BME280;54767;53.800;15.956;2022-08-19T11:20:14;99645.59;;;26.09;66.83
67987;BME280;54767;53.800;15.956;2022-08-19T11:22:42;99647.98;;;26.15;67.29
67987;BME280;54767;53.800;15.956;2022-08-19T11:25:10;99649.60;;;26.25;67.33
67987;BME280;54767;53.800;15.956;2022-08-19T11:27:41;99649.85;;;26.34;66.55
67987;BME280;54767;53.800;15.956;2022-08-19T11:30:12;99652.73;;;26.39;66.28
67987;BME280;54767;53.800;15.956;2022-08-19T11:32:40;99645.34;;;26.47;66.57
67987;BME280;54767;53.800;15.956;2022-08-19T11:35:15;99638.41;;;26.56;66.42
67987;BME280;54767;53.800;15.956;2022-08-19T11:37:42;99632.00;;;26.62;65.97
67987;BME280;54767;53.800;15.956;2022-08-19T11:40:10;99628.83;;;26.67;65.35
67987;BME280;54767;53.800;15.956;2022-08-19T11:42:37;99624.81;;;26.68;64.68
67987;BME280;54767;53.800;15.956;2022-08-19T11:45:24;99620.27;;;26.68;64.38
67987;BME280;54767;53.800;15.956;2022-08-19T11:47:52;99613.95;;;26.71;64.52
67987;BME280;54767;53.800;15.956;2022-08-19T11:50:20;99605.70;;;26.75;64.08
67987;BME280;54767;53.800;15.956;2022-08-19T11:52:50;99607.52;;;26.82;64.61
67987;BME280;54767;53.800;15.956;2022-08-19T11:55:17;99601.00;;;26.93;64.62
67987;BME280;54767;53.800;15.956;2022-08-19T11:57:46;99599.37;;;27.05;64.68
67987;BME280;54767;53.800;15.956;2022-08-19T12:00:13;99595.13;;;27.13;62.56
67987;BME280;54767;53.800;15.956;2022-08-19T12:02:40;99591.79;;;27.17;62.06
67987;BME280;54767;53.800;15.956;2022-08-19T12:05:08;99587.30;;;27.22;62.17
67987;BME280;54767;53.800;15.956;2022-08-19T12:07:40;99586.30;;;27.28;62.40
67987;BME280;54767;53.800;15.956;2022-08-19T12:10:08;99586.27;;;27.35;61.95
67987;BME280;54767;53.800;15.956;2022-08-19T12:12:36;99585.76;;;27.39;61.91
67987;BME280;54767;53.800;15.956;2022-08-19T12:15:09;99577.95;;;27.47;62.35
67987;BME280;54767;53.800;15.956;2022-08-19T12:17:37;99571.05;;;27.57;61.16
67987;BME280;54767;53.800;15.956;2022-08-19T12:20:05;99567.98;;;27.66;60.80
67987;BME280;54767;53.800;15.956;2022-08-19T12:22:39;99567.68;;;27.77;60.36
67987;BME280;54767;53.800;15.956;2022-08-19T12:25:09;99565.55;;;27.88;59.65
67987;BME280;54767;53.800;15.956;2022-08-19T12:27:38;99557.80;;;27.97;59.24
67987;BME280;54767;53.800;15.956;2022-08-19T12:30:10;99550.95;;;28.04;58.68
67987;BME280;54767;53.800;15.956;2022-08-19T12:32:38;99551.48;;;28.09;58.08
67987;BME280;54767;53.800;15.956;2022-08-19T12:35:07;99551.67;;;28.13;57.97
67987;BME280;54767;53.800;15.956;2022-08-19T12:37:36;99552.47;;;28.19;57.76
67987;BME280;54767;53.800;15.956;2022-08-19T12:40:04;99552.24;;;28.24;57.63
67987;BME280;54767;53.800;15.956;2022-08-19T12:42:31;99555.40;;;28.31;57.48
67987;BME280;54767;53.800;15.956;2022-08-19T12:45:05;99554.08;;;28.38;57.57
67987;BME280;54767;53.800;15.956;2022-08-19T12:47:39;99552.22;;;28.48;58.05
67987;BME280;54767;53.800;15.956;2022-08-19T12:50:12;99553.20;;;28.58;57.62
67987;BME280;54767;53.800;15.956;2022-08-19T12:52:40;99558.95;;;28.67;57.80
67987;BME280;54767;53.800;15.956;2022-08-19T12:55:09;99560.98;;;28.75;57.64
67987;BME280;54767;53.800;15.956;2022-08-19T12:57:38;99557.41;;;28.80;56.71
67987;BME280;54767;53.800;15.956;2022-08-19T13:00:07;99552.57;;;28.82;56.58
67987;BME280;54767;53.800;15.956;2022-08-19T13:02:44;99553.48;;;28.82;56.00
67987;BME280;54767;53.800;15.956;2022-08-19T13:05:21;99549.02;;;28.79;56.16
67987;BME280;54767;53.800;15.956;2022-08-19T13:07:52;99546.59;;;28.80;56.09
67987;BME280;54767;53.800;15.956;2022-08-19T13:14:34;99540.23;;;28.75;55.14
67987;BME280;54767;53.800;15.956;2022-08-19T13:17:21;99537.18;;;28.68;55.61
67987;BME280;54767;53.800;15.956;2022-08-19T13:20:00;99534.73;;;28.63;55.83
67987;BME280;54767;53.800;15.956;2022-08-19T13:22:40;99522.23;;;28.56;56.06
67987;BME280;54767;53.800;15.956;2022-08-19T13:25:08;99521.60;;;28.50;56.38
67987;BME280;54767;53.800;15.956;2022-08-19T13:27:47;99523.30;;;28.45;56.53
67987;BME280;54767;53.800;15.956;2022-08-19T13:30:24;99529.28;;;28.43;56.99
67987;BME280;54767;53.800;15.956;2022-08-19T13:33:43;99526.38;;;28.38;57.22
67987;BME280;54767;53.800;15.956;2022-08-19T13:40:26;99519.72;;;28.27;57.38
67987;BME280;54767;53.800;15.956;2022-08-19T13:43:06;99512.88;;;28.23;57.62
67987;BME280;54767;53.800;15.956;2022-08-19T13:45:54;99510.30;;;28.17;57.45
67987;BME280;54767;53.800;15.956;2022-08-19T13:48:25;99497.86;;;28.09;57.55
67987;BME280;54767;53.800;15.956;2022-08-19T13:50:53;99502.30;;;28.03;57.47
67987;BME280;54767;53.800;15.956;2022-08-19T13:53:20;99504.13;;;27.96;57.65
67987;BME280;54767;53.800;15.956;2022-08-19T13:55:48;99506.20;;;27.92;57.89